SCO15TD EGPH-EGAA
Flight info
| Callsign | SCO15TD |
|---|---|
| Flight time | 0h 31m |
| Altitude | 18000 |
| Route | GOSAM P600 BLACA DCT BELZU |
| Aircraft | A320/M-SDE3FGHIRWY/LB1 |
Departure
| Time | 2026-04-26 22:55 |
|---|---|
| Airport | Edinburgh Airport (EGPH) |
Arrival
| Time | 2026-04-26 23:26 |
|---|---|
| Airport | Belfast International Airport (EGAA) |
| Time | Latitude | Longitude | Altitude | Speed | Heading |
|---|---|---|---|---|---|
| 2026-04-26 22:32 | 55.94754 | -3.36612 | 113 ft | 0 kts | 88° |
| 2026-04-26 22:45 | 55.94754 | -3.36606 | 112 ft | 1 kts | 88° |
| 2026-04-26 22:46 | 55.94754 | -3.36602 | 110 ft | 0 kts | 88° |
| 2026-04-26 22:47 | 55.94754 | -3.36606 | 112 ft | 2 kts | 88° |
| 2026-04-26 22:47 | 55.94753 | -3.36636 | 109 ft | 2 kts | 88° |
| 2026-04-26 22:48 | 55.94753 | -3.36666 | 112 ft | 2 kts | 88° |
| 2026-04-26 22:48 | 55.94753 | -3.36677 | 112 ft | 0 kts | 88° |
| 2026-04-26 22:48 | 55.94753 | -3.36673 | 112 ft | 0 kts | 88° |
| 2026-04-26 22:48 | 55.94753 | -3.36668 | 112 ft | 0 kts | 88° |
| 2026-04-26 22:49 | 55.94753 | -3.36666 | 112 ft | 0 kts | 88° |
| 2026-04-26 22:50 | 55.94753 | -3.36675 | 112 ft | 2 kts | 88° |
| 2026-04-26 22:50 | 55.94749 | -3.36706 | 112 ft | 3 kts | 51° |
| 2026-04-26 22:50 | 55.94735 | -3.36726 | 109 ft | 3 kts | 13° |
| 2026-04-26 22:51 | 55.94722 | -3.36729 | 112 ft | 0 kts | 349° |
| 2026-04-26 22:52 | 55.94738 | -3.36743 | 110 ft | 18 kts | 338° |
| 2026-04-26 22:52 | 55.94924 | -3.36829 | 112 ft | 2 kts | 358° |
| 2026-04-26 22:52 | 55.94949 | -3.36798 | 111 ft | 12 kts | 43° |
| 2026-04-26 22:53 | 55.95108 | -3.36361 | 113 ft | 52 kts | 58° |
| 2026-04-26 22:53 | 55.95279 | -3.35855 | 112 ft | 34 kts | 57° |
| 2026-04-26 22:53 | 55.95380 | -3.35552 | 111 ft | 28 kts | 57° |
| 2026-04-26 22:53 | 55.95491 | -3.35446 | 111 ft | 15 kts | 311° |
| 2026-04-26 22:54 | 55.95556 | -3.35551 | 111 ft | 10 kts | 263° |
| 2026-04-26 22:54 | 55.95527 | -3.35637 | 112 ft | 11 kts | 251° |
| 2026-04-26 22:54 | 55.95363 | -3.36177 | 106 ft | 98 kts | 242° |
| 2026-04-26 22:54 | 55.94911 | -3.37555 | 374 ft | 138 kts | 240° |
| 2026-04-26 22:55 | 55.94419 | -3.39169 | 1069 ft | 161 kts | 243° |
| 2026-04-26 22:55 | 55.93832 | -3.41045 | 1876 ft | 183 kts | 236° |
| 2026-04-26 22:55 | 55.93119 | -3.43048 | 2868 ft | 200 kts | 236° |
| 2026-04-26 22:55 | 55.92363 | -3.45144 | 3694 ft | 193 kts | 237° |
| 2026-04-26 22:56 | 55.91597 | -3.47283 | 4224 ft | 213 kts | 238° |
| 2026-04-26 22:56 | 55.90790 | -3.49628 | 4874 ft | 231 kts | 244° |
| 2026-04-26 22:56 | 55.90283 | -3.52433 | 5548 ft | 247 kts | 260° |
| 2026-04-26 22:56 | 55.89973 | -3.55547 | 6293 ft | 262 kts | 260° |
| 2026-04-26 22:57 | 55.89651 | -3.58810 | 7048 ft | 276 kts | 259° |
| 2026-04-26 22:57 | 55.89308 | -3.62289 | 7655 ft | 294 kts | 259° |
| 2026-04-26 22:57 | 55.88943 | -3.65962 | 8400 ft | 305 kts | 259° |
| 2026-04-26 22:57 | 55.88568 | -3.69712 | 9346 ft | 309 kts | 259° |
| 2026-04-26 22:58 | 55.88187 | -3.73503 | 10300 ft | 314 kts | 259° |
| 2026-04-26 22:58 | 55.87790 | -3.77425 | 10821 ft | 331 kts | 259° |
| 2026-04-26 22:58 | 55.87370 | -3.81564 | 11266 ft | 348 kts | 259° |
| 2026-04-26 22:58 | 55.86935 | -3.85910 | 11670 ft | 364 kts | 259° |
| 2026-04-26 22:59 | 55.86488 | -3.90404 | 12311 ft | 372 kts | 259° |
| 2026-04-26 22:59 | 55.86035 | -3.94959 | 13016 ft | 378 kts | 259° |
| 2026-04-26 22:59 | 55.85564 | -3.99667 | 13330 ft | 394 kts | 259° |
| 2026-04-26 22:59 | 55.85069 | -4.04565 | 13596 ft | 409 kts | 258° |
| 2026-04-26 23:00 | 55.84564 | -4.09518 | 14075 ft | 416 kts | 258° |
| 2026-04-26 23:00 | 55.83593 | -4.14416 | 14614 ft | 416 kts | 239° |
| 2026-04-26 23:00 | 55.81810 | -4.18373 | 15133 ft | 418 kts | 223° |
| 2026-04-26 23:00 | 55.79495 | -4.21503 | 15644 ft | 422 kts | 213° |
| 2026-04-26 23:01 | 55.76898 | -4.24137 | 16120 ft | 425 kts | 209° |
| 2026-04-26 23:01 | 55.74307 | -4.26552 | 16580 ft | 428 kts | 209° |
| 2026-04-26 23:01 | 55.71686 | -4.29127 | 17044 ft | 431 kts | 211° |
| 2026-04-26 23:01 | 55.69130 | -4.31903 | 17482 ft | 434 kts | 214° |
| 2026-04-26 23:02 | 55.66611 | -4.34890 | 17904 ft | 436 kts | 216° |
| 2026-04-26 23:02 | 55.64127 | -4.38006 | 18245 ft | 438 kts | 217° |
| 2026-04-26 23:02 | 55.61658 | -4.41177 | 18318 ft | 438 kts | 217° |
| 2026-04-26 23:02 | 55.59189 | -4.44344 | 18328 ft | 439 kts | 217° |
| 2026-04-26 23:03 | 55.56705 | -4.47487 | 18329 ft | 439 kts | 217° |
| 2026-04-26 23:03 | 55.54206 | -4.50594 | 18327 ft | 439 kts | 216° |
| 2026-04-26 23:03 | 55.51703 | -4.53668 | 18329 ft | 439 kts | 216° |
| 2026-04-26 23:03 | 55.49188 | -4.56734 | 18326 ft | 439 kts | 216° |
| 2026-04-26 23:04 | 55.46674 | -4.59782 | 18322 ft | 439 kts | 216° |
| 2026-04-26 23:04 | 55.44157 | -4.62837 | 18328 ft | 439 kts | 216° |
| 2026-04-26 23:04 | 55.41644 | -4.65889 | 18325 ft | 439 kts | 216° |
| 2026-04-26 23:04 | 55.39134 | -4.68939 | 18327 ft | 439 kts | 216° |
| 2026-04-26 23:05 | 55.36620 | -4.71991 | 18324 ft | 439 kts | 216° |
| 2026-04-26 23:05 | 55.34110 | -4.75037 | 18320 ft | 439 kts | 216° |
| 2026-04-26 23:05 | 55.31582 | -4.78057 | 18321 ft | 439 kts | 213° |
| 2026-04-26 23:05 | 55.28883 | -4.80571 | 18318 ft | 440 kts | 208° |
| 2026-04-26 23:06 | 55.26144 | -4.82973 | 18317 ft | 440 kts | 208° |
| 2026-04-26 23:06 | 55.23404 | -4.85371 | 18315 ft | 440 kts | 208° |
| 2026-04-26 23:06 | 55.20664 | -4.87770 | 18313 ft | 440 kts | 208° |
| 2026-04-26 23:06 | 55.17929 | -4.90168 | 18311 ft | 440 kts | 208° |
| 2026-04-26 23:07 | 55.15192 | -4.92565 | 18312 ft | 440 kts | 208° |
| 2026-04-26 23:07 | 55.13387 | -4.94146 | 18311 ft | 440 kts | 208° |
| 2026-04-26 23:07 | 55.09724 | -4.97350 | 18315 ft | 440 kts | 208° |
| 2026-04-26 23:07 | 55.07019 | -4.99712 | 18312 ft | 440 kts | 208° |
| 2026-04-26 23:08 | 55.04256 | -5.02110 | 18684 ft | 432 kts | 208° |
| 2026-04-26 23:08 | 55.01688 | -5.04331 | 19176 ft | 401 kts | 208° |
| 2026-04-26 23:08 | 54.99280 | -5.06408 | 19755 ft | 371 kts | 208° |
| 2026-04-26 23:08 | 54.97060 | -5.08319 | 20299 ft | 344 kts | 208° |
| 2026-04-26 23:09 | 54.94913 | -5.10183 | 18912 ft | 358 kts | 210° |
| 2026-04-26 23:09 | 54.92934 | -5.13197 | 16198 ft | 410 kts | 234° |
| 2026-04-26 23:09 | 54.91150 | -5.17145 | 15328 ft | 412 kts | 229° |
| 2026-04-26 23:09 | 54.89131 | -5.20454 | 15099 ft | 391 kts | 219° |
| 2026-04-26 23:10 | 54.87107 | -5.23671 | 14216 ft | 395 kts | 229° |
| 2026-04-26 23:10 | 54.85666 | -5.27698 | 13428 ft | 393 kts | 243° |
| 2026-04-26 23:10 | 54.84607 | -5.32049 | 12635 ft | 390 kts | 249° |
| 2026-04-26 23:10 | 54.83756 | -5.36486 | 11882 ft | 386 kts | 252° |
| 2026-04-26 23:11 | 54.82998 | -5.40917 | 11137 ft | 381 kts | 252° |
| 2026-04-26 23:11 | 54.82250 | -5.45289 | 10405 ft | 376 kts | 252° |
| 2026-04-26 23:11 | 54.81474 | -5.49569 | 9638 ft | 370 kts | 251° |
| 2026-04-26 23:11 | 54.80660 | -5.53774 | 8855 ft | 364 kts | 250° |
| 2026-04-26 23:12 | 54.79821 | -5.57877 | 8091 ft | 359 kts | 249° |
| 2026-04-26 23:12 | 54.78974 | -5.61913 | 7337 ft | 354 kts | 249° |
| 2026-04-26 23:12 | 54.78135 | -5.65886 | 6604 ft | 349 kts | 249° |
| 2026-04-26 23:12 | 54.77309 | -5.69810 | 5829 ft | 344 kts | 249° |
| 2026-04-26 23:13 | 54.76494 | -5.73681 | 5071 ft | 340 kts | 249° |
| 2026-04-26 23:13 | 54.75692 | -5.77509 | 4297 ft | 336 kts | 249° |
| 2026-04-26 23:13 | 54.74900 | -5.81301 | 3533 ft | 333 kts | 249° |
| 2026-04-26 23:13 | 54.74116 | -5.85061 | 2823 ft | 330 kts | 249° |
| 2026-04-26 23:14 | 54.73609 | -5.87494 | 2616 ft | 320 kts | 249° |
| 2026-04-26 23:14 | 54.72877 | -5.91002 | 2495 ft | 299 kts | 249° |
| 2026-04-26 23:14 | 54.72198 | -5.94240 | 2510 ft | 275 kts | 249° |
| 2026-04-26 23:14 | 54.71571 | -5.97227 | 2512 ft | 253 kts | 249° |
| 2026-04-26 23:15 | 54.70972 | -6.00070 | 2513 ft | 253 kts | 249° |
| 2026-04-26 23:15 | 54.70369 | -6.02927 | 2511 ft | 252 kts | 249° |
| 2026-04-26 23:15 | 54.69767 | -6.05771 | 2515 ft | 252 kts | 249° |
| 2026-04-26 23:15 | 54.69166 | -6.08608 | 2510 ft | 252 kts | 249° |
| 2026-04-26 23:16 | 54.68736 | -6.11559 | 2510 ft | 253 kts | 262° |
| 2026-04-26 23:16 | 54.68668 | -6.14582 | 2511 ft | 253 kts | 273° |
| 2026-04-26 23:16 | 54.68960 | -6.17590 | 2510 ft | 254 kts | 285° |
| 2026-04-26 23:16 | 54.69599 | -6.20421 | 2510 ft | 250 kts | 297° |
| 2026-04-26 23:17 | 54.70500 | -6.22845 | 2510 ft | 231 kts | 308° |
| 2026-04-26 23:17 | 54.71556 | -6.24786 | 2514 ft | 213 kts | 318° |
| 2026-04-26 23:17 | 54.72715 | -6.26287 | 2513 ft | 209 kts | 328° |
| 2026-04-26 23:17 | 54.74009 | -6.27439 | 2510 ft | 210 kts | 338° |
| 2026-04-26 23:18 | 54.75388 | -6.28257 | 2511 ft | 210 kts | 340° |
| 2026-04-26 23:18 | 54.76664 | -6.29444 | 2519 ft | 209 kts | 319° |
| 2026-04-26 23:18 | 54.77623 | -6.31311 | 2517 ft | 208 kts | 300° |
| 2026-04-26 23:18 | 54.78277 | -6.33547 | 2509 ft | 208 kts | 295° |
| 2026-04-26 23:19 | 54.78916 | -6.35794 | 2510 ft | 208 kts | 295° |
| 2026-04-26 23:19 | 54.79561 | -6.38032 | 2511 ft | 207 kts | 296° |
| 2026-04-26 23:19 | 54.80208 | -6.40266 | 2514 ft | 207 kts | 297° |
| 2026-04-26 23:19 | 54.81117 | -6.42184 | 2514 ft | 208 kts | 324° |
| 2026-04-26 23:20 | 54.82442 | -6.43149 | 2514 ft | 209 kts | 352° |
| 2026-04-26 23:20 | 54.83883 | -6.42948 | 2513 ft | 210 kts | 20° |
| 2026-04-26 23:20 | 54.85108 | -6.41609 | 2513 ft | 209 kts | 48° |
| 2026-04-26 23:20 | 54.85826 | -6.39450 | 2516 ft | 208 kts | 76° |
| 2026-04-26 23:21 | 54.85904 | -6.37032 | 2512 ft | 194 kts | 103° |
| 2026-04-26 23:21 | 54.85411 | -6.34960 | 2515 ft | 185 kts | 128° |
| 2026-04-26 23:21 | 54.84479 | -6.33444 | 2519 ft | 184 kts | 152° |
| 2026-04-26 23:21 | 54.83290 | -6.32652 | 2524 ft | 184 kts | 165° |
| 2026-04-26 23:22 | 54.82081 | -6.32030 | 2536 ft | 184 kts | 164° |
| 2026-04-26 23:22 | 54.80884 | -6.31376 | 2505 ft | 172 kts | 163° |
| 2026-04-26 23:22 | 54.79818 | -6.30776 | 2510 ft | 151 kts | 163° |
| 2026-04-26 23:22 | 54.78863 | -6.30236 | 2543 ft | 143 kts | 163° |
| 2026-04-26 23:23 | 54.77921 | -6.29704 | 2520 ft | 143 kts | 163° |
| 2026-04-26 23:23 | 54.76974 | -6.29169 | 2496 ft | 143 kts | 163° |
| 2026-04-26 23:23 | 54.76031 | -6.28636 | 2385 ft | 142 kts | 163° |
| 2026-04-26 23:23 | 54.75089 | -6.28103 | 2227 ft | 142 kts | 163° |
| 2026-04-26 23:24 | 54.74151 | -6.27573 | 2048 ft | 142 kts | 163° |
| 2026-04-26 23:24 | 54.73213 | -6.27044 | 1861 ft | 141 kts | 163° |
| 2026-04-26 23:24 | 54.72281 | -6.26518 | 1668 ft | 141 kts | 162° |
| 2026-04-26 23:24 | 54.71347 | -6.25991 | 1473 ft | 141 kts | 162° |
| 2026-04-26 23:25 | 54.70416 | -6.25467 | 1256 ft | 141 kts | 162° |
| 2026-04-26 23:25 | 54.69477 | -6.24938 | 1039 ft | 142 kts | 161° |
| 2026-04-26 23:25 | 54.68536 | -6.24408 | 828 ft | 142 kts | 161° |
| 2026-04-26 23:25 | 54.67594 | -6.23877 | 635 ft | 142 kts | 161° |
| 2026-04-26 23:26 | 54.66657 | -6.23350 | 440 ft | 142 kts | 161° |
| 2026-04-26 23:26 | 54.65722 | -6.22824 | 267 ft | 137 kts | 161° |
| 2026-04-26 23:26 | 54.64930 | -6.22375 | 241 ft | 71 kts | 162° |
| 2026-04-26 23:26 | 54.64574 | -6.22178 | 253 ft | 39 kts | 161° |
| 2026-04-26 23:27 | 54.64513 | -6.22090 | 255 ft | 1 kts | 68° |
| 2026-04-26 23:27 | 54.64562 | -6.22037 | 256 ft | 14 kts | 17° |
| 2026-04-26 23:27 | 54.64580 | -6.22037 | 256 ft | 0 kts | 354° |
| 2026-04-26 23:28 | 54.64581 | -6.22037 | 256 ft | 0 kts | 354° |
| 2026-04-26 23:28 | 54.64590 | -6.22038 | 255 ft | 2 kts | 354° |
| 2026-04-26 23:28 | 54.64612 | -6.22043 | 255 ft | 4 kts | 350° |
| 2026-04-26 23:28 | 54.64644 | -6.22056 | 254 ft | 6 kts | 345° |
| 2026-04-26 23:29 | 54.64687 | -6.22078 | 252 ft | 7 kts | 342° |
| 2026-04-26 23:29 | 54.64739 | -6.22106 | 251 ft | 9 kts | 342° |
| 2026-04-26 23:29 | 54.64767 | -6.22122 | 250 ft | 0 kts | 342° |
| 2026-04-26 23:32 | 54.64773 | -6.22126 | 249 ft | 2 kts | 342° |
| 2026-04-26 23:32 | 54.64793 | -6.22137 | 249 ft | 4 kts | 342° |
| 2026-04-26 23:32 | 54.64825 | -6.22155 | 248 ft | 6 kts | 342° |
| 2026-04-26 23:32 | 54.64867 | -6.22178 | 247 ft | 7 kts | 343° |
| 2026-04-26 23:33 | 54.64880 | -6.22184 | 246 ft | 0 kts | 343° |
| 2026-04-26 23:34 | 54.64885 | -6.22186 | 246 ft | 2 kts | 343° |
| 2026-04-26 23:34 | 54.64904 | -6.22196 | 245 ft | 4 kts | 343° |
| 2026-04-26 23:34 | 54.65005 | -6.22266 | 242 ft | 46 kts | 338° |
| 2026-04-26 23:35 | 54.65272 | -6.22070 | 238 ft | 47 kts | 52° |
| 2026-04-26 23:35 | 54.65446 | -6.21908 | 237 ft | 24 kts | 47° |
| 2026-04-26 23:35 | 54.65579 | -6.21750 | 241 ft | 23 kts | 56° |
| 2026-04-26 23:35 | 54.65663 | -6.21509 | 245 ft | 24 kts | 61° |
| 2026-04-26 23:36 | 54.65729 | -6.21245 | 249 ft | 24 kts | 72° |
| 2026-04-26 23:36 | 54.65793 | -6.20972 | 253 ft | 24 kts | 49° |
| 2026-04-26 23:36 | 54.65930 | -6.20969 | 252 ft | 22 kts | 331° |
| 2026-04-26 23:36 | 54.66044 | -6.21133 | 254 ft | 21 kts | 276° |
| 2026-04-26 23:37 | 54.65999 | -6.21336 | 250 ft | 17 kts | 251° |
| 2026-04-26 23:37 | 54.65977 | -6.21542 | 247 ft | 16 kts | 314° |
| 2026-04-26 23:37 | 54.66080 | -6.21642 | 244 ft | 9 kts | 338° |
| 2026-04-26 23:37 | 54.66082 | -6.21644 | 244 ft | 0 kts | 337° |
| 2026-04-26 23:45 | 55.94754 | -3.36612 | 183 ft | 0 kts | 88° |